Flugplatz Blomberg-Borkhausen

Für EDVF sind keine METAR/TAF Berichte vorhanden.
Es werden die Flugwettermeldungen vom Flugplatz Buckeburg Airport in 40 km Entfernung angezeigt.

Bericht für ETHB

vom 25.09. um 18:20 UTC

Wind 5 kt aus 170°

Sichtweite 10 km oder mehr

Temperatur 13.0°C

Taupunkt 5.0°C

Luftfeuchtigkeit 58%

Luftdruck 996 hPa

ETHB 251820Z AUTO 17005KT 9999 // ////// 13/05 Q0996 ///
Keine Prognose (TAF) verfügbar.
Impressum